sensor_id;sensor_type;location;lat;lon;timestamp;P1;durP1;ratioP1;P2;durP2;ratioP2
9374;SDS011;4727;51.202;6.344;2023-08-24T00:00:57;8.17;;;4.43;;
9374;SDS011;4727;51.202;6.344;2023-08-24T00:03:23;4.43;;;4.03;;
9374;SDS011;4727;51.202;6.344;2023-08-24T00:05:49;6.53;;;4.23;;
9374;SDS011;4727;51.202;6.344;2023-08-24T00:08:15;4.37;;;3.93;;
9374;SDS011;4727;51.202;6.344;2023-08-24T00:10:43;4.57;;;3.93;;
9374;SDS011;4727;51.202;6.344;2023-08-24T00:13:11;4.80;;;4.00;;
9374;SDS011;4727;51.202;6.344;2023-08-24T00:15:37;5.07;;;4.57;;
9374;SDS011;4727;51.202;6.344;2023-08-24T00:18:04;6.60;;;4.07;;
9374;SDS011;4727;51.202;6.344;2023-08-24T00:20:30;4.47;;;4.07;;
9374;SDS011;4727;51.202;6.344;2023-08-24T00:22:57;4.13;;;3.67;;
9374;SDS011;4727;51.202;6.344;2023-08-24T00:25:24;4.17;;;3.53;;
9374;SDS011;4727;51.202;6.344;2023-08-24T00:27:50;4.57;;;4.10;;
9374;SDS011;4727;51.202;6.344;2023-08-24T00:30:16;4.13;;;3.77;;
9374;SDS011;4727;51.202;6.344;2023-08-24T00:32:42;4.33;;;4.03;;
9374;SDS011;4727;51.202;6.344;2023-08-24T00:35:09;5.07;;;3.60;;
9374;SDS011;4727;51.202;6.344;2023-08-24T00:37:35;5.67;;;4.20;;
9374;SDS011;4727;51.202;6.344;2023-08-24T00:40:02;7.17;;;3.60;;
9374;SDS011;4727;51.202;6.344;2023-08-24T00:42:38;4.13;;;3.53;;
9374;SDS011;4727;51.202;6.344;2023-08-24T00:45:05;8.47;;;4.53;;
9374;SDS011;4727;51.202;6.344;2023-08-24T00:47:32;5.90;;;4.53;;
9374;SDS011;4727;51.202;6.344;2023-08-24T00:49:59;9.00;;;4.80;;
9374;SDS011;4727;51.202;6.344;2023-08-24T00:52:26;5.03;;;4.13;;
9374;SDS011;4727;51.202;6.344;2023-08-24T00:54:56;7.60;;;5.07;;
9374;SDS011;4727;51.202;6.344;2023-08-24T00:57:22;5.87;;;4.23;;
9374;SDS011;4727;51.202;6.344;2023-08-24T00:59:48;7.40;;;4.67;;
9374;SDS011;4727;51.202;6.344;2023-08-24T01:02:14;4.27;;;3.87;;
9374;SDS011;4727;51.202;6.344;2023-08-24T01:04:43;5.07;;;4.33;;
9374;SDS011;4727;51.202;6.344;2023-08-24T01:07:09;4.60;;;4.13;;
9374;SDS011;4727;51.202;6.344;2023-08-24T01:09:35;5.43;;;4.10;;
9374;SDS011;4727;51.202;6.344;2023-08-24T01:12:11;5.63;;;4.43;;
9374;SDS011;4727;51.202;6.344;2023-08-24T01:14:49;5.05;;;4.55;;
9374;SDS011;4727;51.202;6.344;2023-08-24T01:17:23;5.03;;;3.83;;
9374;SDS011;4727;51.202;6.344;2023-08-24T01:19:52;3.90;;;3.47;;
9374;SDS011;4727;51.202;6.344;2023-08-24T01:28:05;4.60;;;4.10;;
9374;SDS011;4727;51.202;6.344;2023-08-24T01:30:33;6.00;;;4.30;;
9374;SDS011;4727;51.202;6.344;2023-08-24T01:33:02;7.53;;;4.60;;
9374;SDS011;4727;51.202;6.344;2023-08-24T01:35:28;5.03;;;3.80;;
9374;SDS011;4727;51.202;6.344;2023-08-24T01:37:55;4.70;;;4.30;;
9374;SDS011;4727;51.202;6.344;2023-08-24T01:40:23;5.87;;;4.37;;
9374;SDS011;4727;51.202;6.344;2023-08-24T01:42:59;5.40;;;4.27;;
9374;SDS011;4727;51.202;6.344;2023-08-24T01:45:28;5.37;;;4.33;;
9374;SDS011;4727;51.202;6.344;2023-08-24T01:47:56;3.97;;;3.63;;
9374;SDS011;4727;51.202;6.344;2023-08-24T01:50:24;4.87;;;4.47;;
9374;SDS011;4727;51.202;6.344;2023-08-24T01:52:50;6.93;;;4.43;;
9374;SDS011;4727;51.202;6.344;2023-08-24T01:55:19;6.10;;;4.70;;
9374;SDS011;4727;51.202;6.344;2023-08-24T01:57:45;5.07;;;4.67;;
9374;SDS011;4727;51.202;6.344;2023-08-24T02:00:12;6.53;;;4.40;;
9374;SDS011;4727;51.202;6.344;2023-08-24T02:02:38;6.03;;;4.40;;
9374;SDS011;4727;51.202;6.344;2023-08-24T02:05:04;4.93;;;4.50;;
9374;SDS011;4727;51.202;6.344;2023-08-24T02:07:30;5.97;;;4.70;;
9374;SDS011;4727;51.202;6.344;2023-08-24T02:09:56;5.03;;;4.27;;
9374;SDS011;4727;51.202;6.344;2023-08-24T02:12:22;4.53;;;3.97;;
9374;SDS011;4727;51.202;6.344;2023-08-24T02:14:48;4.90;;;4.50;;
9374;SDS011;4727;51.202;6.344;2023-08-24T02:17:14;4.30;;;3.90;;
9374;SDS011;4727;51.202;6.344;2023-08-24T02:19:40;4.77;;;3.87;;
9374;SDS011;4727;51.202;6.344;2023-08-24T02:22:06;5.53;;;4.20;;
9374;SDS011;4727;51.202;6.344;2023-08-24T02:24:32;5.17;;;4.67;;
9374;SDS011;4727;51.202;6.344;2023-08-24T02:26:58;5.43;;;4.93;;
9374;SDS011;4727;51.202;6.344;2023-08-24T02:29:24;5.57;;;4.47;;
9374;SDS011;4727;51.202;6.344;2023-08-24T02:31:50;5.90;;;5.30;;
9374;SDS011;4727;51.202;6.344;2023-08-24T02:34:17;6.40;;;4.67;;
9374;SDS011;4727;51.202;6.344;2023-08-24T02:36:43;6.00;;;5.40;;
9374;SDS011;4727;51.202;6.344;2023-08-24T02:39:09;9.80;;;5.37;;
9374;SDS011;4727;51.202;6.344;2023-08-24T02:41:35;5.50;;;5.00;;
9374;SDS011;4727;51.202;6.344;2023-08-24T02:44:01;6.47;;;5.03;;
9374;SDS011;4727;51.202;6.344;2023-08-24T02:46:27;8.40;;;5.70;;
9374;SDS011;4727;51.202;6.344;2023-08-24T02:48:53;6.67;;;5.67;;
9374;SDS011;4727;51.202;6.344;2023-08-24T02:51:21;9.47;;;5.50;;
9374;SDS011;4727;51.202;6.344;2023-08-24T02:53:47;7.00;;;5.90;;
9374;SDS011;4727;51.202;6.344;2023-08-24T02:56:13;7.23;;;5.80;;
9374;SDS011;4727;51.202;6.344;2023-08-24T02:58:39;7.30;;;5.87;;
9374;SDS011;4727;51.202;6.344;2023-08-24T03:01:05;6.80;;;5.57;;
9374;SDS011;4727;51.202;6.344;2023-08-24T03:19:20;5.33;;;4.67;;
9374;SDS011;4727;51.202;6.344;2023-08-24T03:21:46;6.63;;;5.53;;
9374;SDS011;4727;51.202;6.344;2023-08-24T03:24:12;6.33;;;5.10;;
9374;SDS011;4727;51.202;6.344;2023-08-24T03:26:38;7.30;;;4.97;;
9374;SDS011;4727;51.202;6.344;2023-08-24T03:29:04;5.87;;;5.27;;
9374;SDS011;4727;51.202;6.344;2023-08-24T03:46:08;8.97;;;5.90;;
9374;SDS011;4727;51.202;6.344;2023-08-24T03:48:34;6.83;;;5.47;;
9374;SDS011;4727;51.202;6.344;2023-08-24T03:51:00;6.13;;;5.53;;
9374;SDS011;4727;51.202;6.344;2023-08-24T03:53:26;8.80;;;6.00;;
9374;SDS011;4727;51.202;6.344;2023-08-24T03:55:52;11.67;;;5.80;;
9374;SDS011;4727;51.202;6.344;2023-08-24T03:58:18;6.80;;;5.87;;
9374;SDS011;4727;51.202;6.344;2023-08-24T04:00:44;8.87;;;5.70;;
9374;SDS011;4727;51.202;6.344;2023-08-24T04:03:10;6.17;;;5.57;;
9374;SDS011;4727;51.202;6.344;2023-08-24T04:05:36;7.67;;;5.30;;
9374;SDS011;4727;51.202;6.344;2023-08-24T04:08:02;8.60;;;5.80;;
9374;SDS011;4727;51.202;6.344;2023-08-24T04:10:29;8.00;;;5.43;;
9374;SDS011;4727;51.202;6.344;2023-08-24T04:12:55;6.70;;;5.27;;
9374;SDS011;4727;51.202;6.344;2023-08-24T04:15:21;7.20;;;5.33;;
9374;SDS011;4727;51.202;6.344;2023-08-24T04:17:47;9.47;;;6.40;;
9374;SDS011;4727;51.202;6.344;2023-08-24T04:20:13;7.60;;;6.00;;
9374;SDS011;4727;51.202;6.344;2023-08-24T04:22:39;6.17;;;5.47;;
9374;SDS011;4727;51.202;6.344;2023-08-24T04:25:05;7.37;;;5.40;;
9374;SDS011;4727;51.202;6.344;2023-08-24T04:27:31;6.87;;;5.53;;
9374;SDS011;4727;51.202;6.344;2023-08-24T04:29:57;8.37;;;6.13;;
9374;SDS011;4727;51.202;6.344;2023-08-24T04:32:23;5.87;;;4.87;;
9374;SDS011;4727;51.202;6.344;2023-08-24T04:34:49;6.27;;;4.83;;
9374;SDS011;4727;51.202;6.344;2023-08-24T04:37:16;5.70;;;5.20;;
9374;SDS011;4727;51.202;6.344;2023-08-24T04:39:41;10.00;;;5.20;;
9374;SDS011;4727;51.202;6.344;2023-08-24T04:42:07;5.37;;;4.60;;
9374;SDS011;4727;51.202;6.344;2023-08-24T04:44:33;8.00;;;5.43;;
9374;SDS011;4727;51.202;6.344;2023-08-24T04:46:59;5.93;;;5.33;;
9374;SDS011;4727;51.202;6.344;2023-08-24T04:49:25;6.10;;;4.80;;
9374;SDS011;4727;51.202;6.344;2023-08-24T04:51:51;5.73;;;5.17;;
9374;SDS011;4727;51.202;6.344;2023-08-24T04:54:17;6.97;;;4.60;;
9374;SDS011;4727;51.202;6.344;2023-08-24T04:56:43;5.27;;;4.77;;
9374;SDS011;4727;51.202;6.344;2023-08-24T04:59:09;6.67;;;4.83;;
9374;SDS011;4727;51.202;6.344;2023-08-24T05:01:35;4.83;;;4.33;;
9374;SDS011;4727;51.202;6.344;2023-08-24T05:04:02;5.20;;;4.70;;
9374;SDS011;4727;51.202;6.344;2023-08-24T05:06:28;7.63;;;5.23;;
9374;SDS011;4727;51.202;6.344;2023-08-24T05:08:54;9.17;;;5.33;;
9374;SDS011;4727;51.202;6.344;2023-08-24T05:11:21;9.77;;;5.20;;
9374;SDS011;4727;51.202;6.344;2023-08-24T05:13:49;10.80;;;5.67;;
9374;SDS011;4727;51.202;6.344;2023-08-24T05:16:15;6.50;;;5.43;;
9374;SDS011;4727;51.202;6.344;2023-08-24T05:18:41;7.03;;;4.70;;
9374;SDS011;4727;51.202;6.344;2023-08-24T05:21:07;6.50;;;5.27;;
9374;SDS011;4727;51.202;6.344;2023-08-24T05:23:33;5.30;;;4.80;;
9374;SDS011;4727;51.202;6.344;2023-08-24T05:26:00;12.70;;;4.90;;
9374;SDS011;4727;51.202;6.344;2023-08-24T05:28:27;6.33;;;4.77;;
9374;SDS011;4727;51.202;6.344;2023-08-24T05:30:54;8.13;;;5.20;;
9374;SDS011;4727;51.202;6.344;2023-08-24T05:33:20;6.27;;;4.70;;
9374;SDS011;4727;51.202;6.344;2023-08-24T05:35:47;8.97;;;5.40;;
9374;SDS011;4727;51.202;6.344;2023-08-24T05:38:13;5.07;;;4.57;;
9374;SDS011;4727;51.202;6.344;2023-08-24T05:40:39;4.50;;;4.10;;
9374;SDS011;4727;51.202;6.344;2023-08-24T05:43:07;4.97;;;4.47;;
9374;SDS011;4727;51.202;6.344;2023-08-24T05:45:33;4.20;;;3.80;;
9374;SDS011;4727;51.202;6.344;2023-08-24T05:47:59;8.53;;;4.43;;
9374;SDS011;4727;51.202;6.344;2023-08-24T05:50:25;4.03;;;3.70;;
9374;SDS011;4727;51.202;6.344;2023-08-24T05:52:51;3.90;;;3.60;;
9374;SDS011;4727;51.202;6.344;2023-08-24T05:55:17;5.07;;;4.57;;
9374;SDS011;4727;51.202;6.344;2023-08-24T05:57:43;4.43;;;3.70;;
9374;SDS011;4727;51.202;6.344;2023-08-24T06:00:09;7.17;;;4.20;;
9374;SDS011;4727;51.202;6.344;2023-08-24T06:02:36;6.60;;;3.93;;
9374;SDS011;4727;51.202;6.344;2023-08-24T06:05:02;4.07;;;3.63;;
9374;SDS011;4727;51.202;6.344;2023-08-24T06:07:28;8.83;;;4.50;;
9374;SDS011;4727;51.202;6.344;2023-08-24T06:09:54;4.47;;;3.37;;
9374;SDS011;4727;51.202;6.344;2023-08-24T06:12:20;5.50;;;4.47;;
9374;SDS011;4727;51.202;6.344;2023-08-24T06:14:46;7.63;;;4.30;;
9374;SDS011;4727;51.202;6.344;2023-08-24T06:17:12;4.73;;;4.17;;
9374;SDS011;4727;51.202;6.344;2023-08-24T06:19:38;4.87;;;4.03;;
9374;SDS011;4727;51.202;6.344;2023-08-24T06:22:04;4.27;;;3.60;;
9374;SDS011;4727;51.202;6.344;2023-08-24T06:24:30;4.77;;;3.73;;
9374;SDS011;4727;51.202;6.344;2023-08-24T06:26:56;5.77;;;3.90;;
9374;SDS011;4727;51.202;6.344;2023-08-24T06:29:22;5.10;;;4.40;;
9374;SDS011;4727;51.202;6.344;2023-08-24T06:31:48;5.23;;;4.00;;
9374;SDS011;4727;51.202;6.344;2023-08-24T06:34:14;4.97;;;4.00;;
9374;SDS011;4727;51.202;6.344;2023-08-24T06:36:40;4.70;;;3.90;;
9374;SDS011;4727;51.202;6.344;2023-08-24T06:39:06;4.67;;;4.23;;
9374;SDS011;4727;51.202;6.344;2023-08-24T06:41:33;4.67;;;4.00;;
9374;SDS011;4727;51.202;6.344;2023-08-24T06:44:00;4.47;;;4.07;;
9374;SDS011;4727;51.202;6.344;2023-08-24T06:46:26;5.13;;;3.47;;
9374;SDS011;4727;51.202;6.344;2023-08-24T06:48:51;3.77;;;3.47;;
9374;SDS011;4727;51.202;6.344;2023-08-24T06:51:17;4.30;;;3.90;;
9374;SDS011;4727;51.202;6.344;2023-08-24T06:53:43;3.40;;;3.13;;
9374;SDS011;4727;51.202;6.344;2023-08-24T06:56:11;4.07;;;3.70;;
9374;SDS011;4727;51.202;6.344;2023-08-24T06:58:37;4.70;;;3.30;;
9374;SDS011;4727;51.202;6.344;2023-08-24T07:01:03;6.30;;;3.93;;
9374;SDS011;4727;51.202;6.344;2023-08-24T07:03:31;5.13;;;3.00;;
9374;SDS011;4727;51.202;6.344;2023-08-24T07:05:58;5.60;;;3.70;;
9374;SDS011;4727;51.202;6.344;2023-08-24T07:08:24;3.43;;;3.13;;
9374;SDS011;4727;51.202;6.344;2023-08-24T07:10:50;6.07;;;2.90;;
9374;SDS011;4727;51.202;6.344;2023-08-24T07:13:16;3.17;;;2.88;;
9374;SDS011;4727;51.202;6.344;2023-08-24T07:15:42;3.72;;;3.10;;
9374;SDS011;4727;51.202;6.344;2023-08-24T07:18:10;4.03;;;2.90;;
9374;SDS011;4727;51.202;6.344;2023-08-24T07:20:36;3.03;;;2.70;;
9374;SDS011;4727;51.202;6.344;2023-08-24T07:23:02;2.90;;;2.70;;
9374;SDS011;4727;51.202;6.344;2023-08-24T07:25:28;3.85;;;2.75;;
9374;SDS011;4727;51.202;6.344;2023-08-24T07:27:55;5.35;;;3.33;;
9374;SDS011;4727;51.202;6.344;2023-08-24T07:30:27;3.25;;;3.05;;
9374;SDS011;4727;51.202;6.344;2023-08-24T07:32:53;3.92;;;3.13;;
9374;SDS011;4727;51.202;6.344;2023-08-24T07:35:19;4.28;;;3.20;;
9374;SDS011;4727;51.202;6.344;2023-08-24T07:37:48;3.63;;;3.17;;
9374;SDS011;4727;51.202;6.344;2023-08-24T07:40:14;5.60;;;3.60;;
9374;SDS011;4727;51.202;6.344;2023-08-24T07:42:44;2.90;;;2.70;;
9374;SDS011;4727;51.202;6.344;2023-08-24T07:45:15;3.65;;;2.75;;
9374;SDS011;4727;51.202;6.344;2023-08-24T07:47:41;6.05;;;3.30;;
9374;SDS011;4727;51.202;6.344;2023-08-24T07:50:08;3.20;;;3.00;;
9374;SDS011;4727;51.202;6.344;2023-08-24T07:52:34;3.42;;;2.83;;
9374;SDS011;4727;51.202;6.344;2023-08-24T07:55:00;3.40;;;2.97;;
9374;SDS011;4727;51.202;6.344;2023-08-24T07:57:28;3.53;;;3.22;;
9374;SDS011;4727;51.202;6.344;2023-08-24T07:59:54;3.65;;;3.35;;
9374;SDS011;4727;51.202;6.344;2023-08-24T08:02:20;3.35;;;3.15;;
9374;SDS011;4727;51.202;6.344;2023-08-24T08:04:46;4.78;;;3.22;;
9374;SDS011;4727;51.202;6.344;2023-08-24T08:07:12;3.55;;;3.22;;
9374;SDS011;4727;51.202;6.344;2023-08-24T08:09:38;3.35;;;3.13;;
9374;SDS011;4727;51.202;6.344;2023-08-24T08:12:04;3.10;;;2.80;;
9374;SDS011;4727;51.202;6.344;2023-08-24T08:14:30;3.65;;;3.35;;
9374;SDS011;4727;51.202;6.344;2023-08-24T08:16:56;3.70;;;2.70;;
9374;SDS011;4727;51.202;6.344;2023-08-24T08:19:22;3.92;;;2.63;;
9374;SDS011;4727;51.202;6.344;2023-08-24T08:21:50;4.13;;;3.15;;
9374;SDS011;4727;51.202;6.344;2023-08-24T08:24:16;5.47;;;3.25;;
9374;SDS011;4727;51.202;6.344;2023-08-24T08:26:42;4.22;;;2.72;;
9374;SDS011;4727;51.202;6.344;2023-08-24T08:29:08;3.20;;;2.90;;
9374;SDS011;4727;51.202;6.344;2023-08-24T08:31:34;3.40;;;2.92;;
9374;SDS011;4727;51.202;6.344;2023-08-24T08:34:00;2.53;;;2.38;;
9374;SDS011;4727;51.202;6.344;2023-08-24T08:36:26;2.88;;;2.60;;
9374;SDS011;4727;51.202;6.344;2023-08-24T08:38:52;2.95;;;2.75;;
9374;SDS011;4727;51.202;6.344;2023-08-24T08:41:20;2.60;;;2.42;;
9374;SDS011;4727;51.202;6.344;2023-08-24T08:43:48;4.28;;;2.53;;
9374;SDS011;4727;51.202;6.344;2023-08-24T08:46:14;2.55;;;2.38;;
9374;SDS011;4727;51.202;6.344;2023-08-24T08:48:41;2.80;;;2.50;;
9374;SDS011;4727;51.202;6.344;2023-08-24T08:51:07;2.63;;;2.42;;
9374;SDS011;4727;51.202;6.344;2023-08-24T08:53:33;2.65;;;2.45;;
9374;SDS011;4727;51.202;6.344;2023-08-24T08:55:59;2.60;;;2.40;;
9374;SDS011;4727;51.202;6.344;2023-08-24T08:58:28;3.03;;;2.80;;
9374;SDS011;4727;51.202;6.344;2023-08-24T09:00:55;2.40;;;2.20;;
9374;SDS011;4727;51.202;6.344;2023-08-24T09:03:24;2.17;;;2.08;;
9374;SDS011;4727;51.202;6.344;2023-08-24T09:05:52;2.33;;;2.22;;
9374;SDS011;4727;51.202;6.344;2023-08-24T09:08:18;2.95;;;2.67;;
9374;SDS011;4727;51.202;6.344;2023-08-24T09:10:44;2.72;;;2.40;;
9374;SDS011;4727;51.202;6.344;2023-08-24T09:13:10;3.33;;;3.10;;
9374;SDS011;4727;51.202;6.344;2023-08-24T09:15:37;2.80;;;2.60;;
9374;SDS011;4727;51.202;6.344;2023-08-24T09:18:03;2.30;;;2.20;;
9374;SDS011;4727;51.202;6.344;2023-08-24T09:20:29;2.28;;;1.90;;
9374;SDS011;4727;51.202;6.344;2023-08-24T09:22:55;3.00;;;2.65;;
9374;SDS011;4727;51.202;6.344;2023-08-24T09:25:24;3.47;;;3.22;;
9374;SDS011;4727;51.202;6.344;2023-08-24T09:28:00;5.70;;;3.33;;
9374;SDS011;4727;51.202;6.344;2023-08-24T09:30:29;6.45;;;3.28;;
9374;SDS011;4727;51.202;6.344;2023-08-24T09:32:56;3.10;;;2.90;;
9374;SDS011;4727;51.202;6.344;2023-08-24T09:35:29;3.17;;;2.90;;
9374;SDS011;4727;51.202;6.344;2023-08-24T09:37:55;3.80;;;2.72;;
9374;SDS011;4727;51.202;6.344;2023-08-24T09:40:25;2.83;;;2.55;;
9374;SDS011;4727;51.202;6.344;2023-08-24T09:42:51;3.05;;;2.78;;
9374;SDS011;4727;51.202;6.344;2023-08-24T10:01:20;3.55;;;2.80;;
9374;SDS011;4727;51.202;6.344;2023-08-24T10:03:46;3.67;;;3.17;;
9374;SDS011;4727;51.202;6.344;2023-08-24T10:06:12;3.50;;;3.20;;
9374;SDS011;4727;51.202;6.344;2023-08-24T10:08:40;3.15;;;2.95;;
9374;SDS011;4727;51.202;6.344;2023-08-24T10:11:09;3.58;;;2.80;;
9374;SDS011;4727;51.202;6.344;2023-08-24T10:13:41;3.65;;;3.13;;
9374;SDS011;4727;51.202;6.344;2023-08-24T10:16:14;5.30;;;2.90;;
9374;SDS011;4727;51.202;6.344;2023-08-24T10:18:43;4.78;;;3.17;;
9374;SDS011;4727;51.202;6.344;2023-08-24T10:21:08;6.10;;;2.85;;
9374;SDS011;4727;51.202;6.344;2023-08-24T10:23:35;5.03;;;3.03;;
9374;SDS011;4727;51.202;6.344;2023-08-24T10:26:02;3.05;;;2.83;;
9374;SDS011;4727;51.202;6.344;2023-08-24T10:28:29;3.40;;;3.10;;
9374;SDS011;4727;51.202;6.344;2023-08-24T10:30:57;2.88;;;2.67;;
9374;SDS011;4727;51.202;6.344;2023-08-24T10:33:24;3.03;;;2.80;;
9374;SDS011;4727;51.202;6.344;2023-08-24T10:35:51;2.70;;;2.55;;
9374;SDS011;4727;51.202;6.344;2023-08-24T10:38:27;2.58;;;2.40;;
9374;SDS011;4727;51.202;6.344;2023-08-24T10:40:54;2.90;;;2.47;;
9374;SDS011;4727;51.202;6.344;2023-08-24T10:43:26;2.58;;;2.38;;
9374;SDS011;4727;51.202;6.344;2023-08-24T10:48:28;3.28;;;2.25;;
9374;SDS011;4727;51.202;6.344;2023-08-24T10:53:45;4.22;;;2.58;;
9374;SDS011;4727;51.202;6.344;2023-08-24T10:56:12;2.70;;;2.50;;
9374;SDS011;4727;51.202;6.344;2023-08-24T10:58:38;2.50;;;2.30;;
9374;SDS011;4727;51.202;6.344;2023-08-24T11:01:04;2.20;;;2.10;;
9374;SDS011;4727;51.202;6.344;2023-08-24T11:03:31;2.40;;;2.20;;
9374;SDS011;4727;51.202;6.344;2023-08-24T11:06:00;7.80;;;3.13;;
9374;SDS011;4727;51.202;6.344;2023-08-24T11:08:44;2.50;;;2.30;;
9374;SDS011;4727;51.202;6.344;2023-08-24T11:11:20;2.80;;;2.60;;
9374;SDS011;4727;51.202;6.344;2023-08-24T11:16:48;2.47;;;2.38;;
9374;SDS011;4727;51.202;6.344;2023-08-24T11:19:14;1.95;;;1.75;;
9374;SDS011;4727;51.202;6.344;2023-08-24T11:21:41;2.58;;;2.38;;
9374;SDS011;4727;51.202;6.344;2023-08-24T11:24:09;7.60;;;2.70;;
9374;SDS011;4727;51.202;6.344;2023-08-24T11:26:39;2.35;;;2.00;;
9374;SDS011;4727;51.202;6.344;2023-08-24T11:29:08;2.53;;;2.33;;
9374;SDS011;4727;51.202;6.344;2023-08-24T11:31:35;2.75;;;2.20;;
9374;SDS011;4727;51.202;6.344;2023-08-24T11:34:01;2.90;;;2.60;;
9374;SDS011;4727;51.202;6.344;2023-08-24T11:36:28;3.55;;;2.38;;
9374;SDS011;4727;51.202;6.344;2023-08-24T11:38:56;2.33;;;2.20;;
9374;SDS011;4727;51.202;6.344;2023-08-24T11:41:23;2.17;;;2.08;;
9374;SDS011;4727;51.202;6.344;2023-08-24T11:43:49;2.45;;;2.28;;
9374;SDS011;4727;51.202;6.344;2023-08-24T11:46:18;2.30;;;2.20;;
9374;SDS011;4727;51.202;6.344;2023-08-24T11:48:45;3.33;;;2.25;;
9374;SDS011;4727;51.202;6.344;2023-08-24T11:51:11;4.00;;;2.28;;
9374;SDS011;4727;51.202;6.344;2023-08-24T11:53:44;2.13;;;1.85;;
9374;SDS011;4727;51.202;6.344;2023-08-24T11:56:11;2.50;;;2.40;;
9374;SDS011;4727;51.202;6.344;2023-08-24T11:58:38;2.35;;;2.15;;
9374;SDS011;4727;51.202;6.344;2023-08-24T12:01:08;2.80;;;2.60;;
9374;SDS011;4727;51.202;6.344;2023-08-24T12:03:38;2.88;;;2.67;;
9374;SDS011;4727;51.202;6.344;2023-08-24T12:06:17;2.58;;;2.35;;
9374;SDS011;4727;51.202;6.344;2023-08-24T12:08:44;2.42;;;2.33;;
9374;SDS011;4727;51.202;6.344;2023-08-24T12:11:16;3.38;;;2.65;;
9374;SDS011;4727;51.202;6.344;2023-08-24T12:13:45;5.38;;;2.78;;
9374;SDS011;4727;51.202;6.344;2023-08-24T12:16:14;3.67;;;3.38;;
9374;SDS011;4727;51.202;6.344;2023-08-24T12:18:49;4.07;;;2.80;;
9374;SDS011;4727;51.202;6.344;2023-08-24T12:21:18;3.58;;;2.60;;
9374;SDS011;4727;51.202;6.344;2023-08-24T12:23:45;4.28;;;3.13;;
9374;SDS011;4727;51.202;6.344;2023-08-24T12:26:23;4.30;;;3.10;;
9374;SDS011;4727;51.202;6.344;2023-08-24T12:28:52;3.15;;;2.85;;
9374;SDS011;4727;51.202;6.344;2023-08-24T12:31:18;3.97;;;2.80;;
9374;SDS011;4727;51.202;6.344;2023-08-24T12:33:45;5.85;;;3.42;;
9374;SDS011;4727;51.202;6.344;2023-08-24T12:36:22;4.65;;;3.05;;
9374;SDS011;4727;51.202;6.344;2023-08-24T12:38:48;3.08;;;2.88;;
9374;SDS011;4727;51.202;6.344;2023-08-24T12:41:14;4.50;;;3.25;;
9374;SDS011;4727;51.202;6.344;2023-08-24T12:43:39;3.15;;;2.85;;
9374;SDS011;4727;51.202;6.344;2023-08-24T12:46:05;3.08;;;2.88;;
9374;SDS011;4727;51.202;6.344;2023-08-24T12:48:31;4.68;;;3.30;;
9374;SDS011;4727;51.202;6.344;2023-08-24T12:50:57;3.88;;;3.47;;
9374;SDS011;4727;51.202;6.344;2023-08-24T12:53:23;4.20;;;3.38;;
9374;SDS011;4727;51.202;6.344;2023-08-24T12:55:49;3.63;;;3.17;;
9374;SDS011;4727;51.202;6.344;2023-08-24T12:58:15;3.42;;;3.17;;
9374;SDS011;4727;51.202;6.344;2023-08-24T13:00:42;3.42;;;3.17;;
9374;SDS011;4727;51.202;6.344;2023-08-24T13:03:08;4.03;;;3.72;;
9374;SDS011;4727;51.202;6.344;2023-08-24T13:05:34;8.18;;;3.58;;
9374;SDS011;4727;51.202;6.344;2023-08-24T13:08:00;4.60;;;3.75;;
9374;SDS011;4727;51.202;6.344;2023-08-24T13:10:26;3.72;;;3.50;;
9374;SDS011;4727;51.202;6.344;2023-08-24T13:12:52;4.65;;;4.03;;
9374;SDS011;4727;51.202;6.344;2023-08-24T13:15:18;3.67;;;3.00;;
9374;SDS011;4727;51.202;6.344;2023-08-24T13:17:45;4.57;;;3.28;;
9374;SDS011;4727;51.202;6.344;2023-08-24T13:20:11;3.60;;;3.30;;
9374;SDS011;4727;51.202;6.344;2023-08-24T13:22:37;3.30;;;3.05;;
9374;SDS011;4727;51.202;6.344;2023-08-24T13:25:03;3.17;;;2.92;;
9374;SDS011;4727;51.202;6.344;2023-08-24T13:27:29;3.10;;;2.90;;
9374;SDS011;4727;51.202;6.344;2023-08-24T13:29:56;3.60;;;2.85;;
9374;SDS011;4727;51.202;6.344;2023-08-24T13:32:25;3.47;;;3.17;;
9374;SDS011;4727;51.202;6.344;2023-08-24T13:34:51;4.55;;;3.03;;
9374;SDS011;4727;51.202;6.344;2023-08-24T13:37:17;3.50;;;2.80;;
9374;SDS011;4727;51.202;6.344;2023-08-24T13:39:43;2.97;;;2.78;;
9374;SDS011;4727;51.202;6.344;2023-08-24T13:42:09;4.78;;;2.50;;
9374;SDS011;4727;51.202;6.344;2023-08-24T13:44:35;3.17;;;2.97;;
9374;SDS011;4727;51.202;6.344;2023-08-24T13:47:01;3.65;;;3.30;;
9374;SDS011;4727;51.202;6.344;2023-08-24T13:49:27;2.83;;;2.60;;
9374;SDS011;4727;51.202;6.344;2023-08-24T13:51:53;3.50;;;3.20;;
9374;SDS011;4727;51.202;6.344;2023-08-24T13:54:19;2.58;;;2.38;;
9374;SDS011;4727;51.202;6.344;2023-08-24T13:56:48;2.85;;;2.70;;
9374;SDS011;4727;51.202;6.344;2023-08-24T13:59:15;3.13;;;2.88;;
9374;SDS011;4727;51.202;6.344;2023-08-24T14:01:41;3.63;;;2.90;;
9374;SDS011;4727;51.202;6.344;2023-08-24T14:04:07;3.55;;;3.08;;
9374;SDS011;4727;51.202;6.344;2023-08-24T14:06:33;2.88;;;2.50;;
9374;SDS011;4727;51.202;6.344;2023-08-24T14:09:01;4.20;;;2.80;;
9374;SDS011;4727;51.202;6.344;2023-08-24T14:11:28;4.65;;;3.53;;
9374;SDS011;4727;51.202;6.344;2023-08-24T14:13:54;3.00;;;2.80;;
9374;SDS011;4727;51.202;6.344;2023-08-24T14:16:20;2.97;;;2.78;;
9374;SDS011;4727;51.202;6.344;2023-08-24T14:18:46;3.78;;;3.03;;
9374;SDS011;4727;51.202;6.344;2023-08-24T14:21:13;5.00;;;3.00;;
9374;SDS011;4727;51.202;6.344;2023-08-24T14:23:39;3.75;;;2.25;;
9374;SDS011;4727;51.202;6.344;2023-08-24T14:26:05;5.90;;;2.78;;
9374;SDS011;4727;51.202;6.344;2023-08-24T14:31:18;3.00;;;2.80;;
9374;SDS011;4727;51.202;6.344;2023-08-24T14:33:45;2.47;;;2.28;;
9374;SDS011;4727;51.202;6.344;2023-08-24T14:36:11;2.97;;;2.40;;
9374;SDS011;4727;51.202;6.344;2023-08-24T14:38:40;3.42;;;2.58;;
9374;SDS011;4727;51.202;6.344;2023-08-24T14:41:07;3.05;;;2.55;;
9374;SDS011;4727;51.202;6.344;2023-08-24T14:43:33;2.65;;;2.45;;
9374;SDS011;4727;51.202;6.344;2023-08-24T14:45:59;2.70;;;2.45;;
9374;SDS011;4727;51.202;6.344;2023-08-24T14:48:26;3.25;;;2.85;;
9374;SDS011;4727;51.202;6.344;2023-08-24T14:50:52;2.90;;;2.70;;
9374;SDS011;4727;51.202;6.344;2023-08-24T14:53:18;3.40;;;2.13;;
9374;SDS011;4727;51.202;6.344;2023-08-24T14:55:44;2.08;;;1.92;;
9374;SDS011;4727;51.202;6.344;2023-08-24T14:58:10;2.20;;;2.10;;
9374;SDS011;4727;51.202;6.344;2023-08-24T15:00:36;3.42;;;2.22;;
9374;SDS011;4727;51.202;6.344;2023-08-24T15:03:02;2.30;;;2.08;;
9374;SDS011;4727;51.202;6.344;2023-08-24T15:05:28;2.72;;;2.53;;
9374;SDS011;4727;51.202;6.344;2023-08-24T15:07:54;2.30;;;2.03;;
9374;SDS011;4727;51.202;6.344;2023-08-24T15:10:20;2.65;;;2.42;;
9374;SDS011;4727;51.202;6.344;2023-08-24T15:12:46;2.60;;;2.40;;
9374;SDS011;4727;51.202;6.344;2023-08-24T15:15:13;1.92;;;1.73;;
9374;SDS011;4727;51.202;6.344;2023-08-24T15:17:42;2.33;;;2.22;;
9374;SDS011;4727;51.202;6.344;2023-08-24T15:20:08;2.03;;;1.77;;
9374;SDS011;4727;51.202;6.344;2023-08-24T15:22:35;2.40;;;2.22;;
9374;SDS011;4727;51.202;6.344;2023-08-24T15:25:00;1.63;;;1.52;;
9374;SDS011;4727;51.202;6.344;2023-08-24T15:27:27;2.10;;;2.00;;
9374;SDS011;4727;51.202;6.344;2023-08-24T15:29:53;1.30;;;1.20;;
9374;SDS011;4727;51.202;6.344;2023-08-24T15:32:19;1.88;;;1.67;;
9374;SDS011;4727;51.202;6.344;2023-08-24T15:34:45;1.90;;;1.70;;
9374;SDS011;4727;51.202;6.344;2023-08-24T15:37:11;2.67;;;1.73;;
9374;SDS011;4727;51.202;6.344;2023-08-24T15:39:38;2.00;;;1.90;;
9374;SDS011;4727;51.202;6.344;2023-08-24T15:42:05;1.90;;;1.50;;
9374;SDS011;4727;51.202;6.344;2023-08-24T16:01:08;2.50;;;1.75;;
9374;SDS011;4727;51.202;6.344;2023-08-24T16:03:34;1.85;;;1.67;;
9374;SDS011;4727;51.202;6.344;2023-08-24T16:06:00;2.85;;;1.48;;
9374;SDS011;4727;51.202;6.344;2023-08-24T16:08:26;1.33;;;1.20;;
9374;SDS011;4727;51.202;6.344;2023-08-24T16:10:55;1.77;;;1.67;;
9374;SDS011;4727;51.202;6.344;2023-08-24T16:13:22;2.63;;;1.05;;
9374;SDS011;4727;51.202;6.344;2023-08-24T16:15:48;1.60;;;1.50;;
9374;SDS011;4727;51.202;6.344;2023-08-24T16:18:14;5.10;;;2.03;;
9374;SDS011;4727;51.202;6.344;2023-08-24T16:20:40;0.98;;;0.57;;
9374;SDS011;4727;51.202;6.344;2023-08-24T16:23:05;2.78;;;1.35;;
9374;SDS011;4727;51.202;6.344;2023-08-24T16:25:33;0.85;;;0.75;;
9374;SDS011;4727;51.202;6.344;2023-08-24T16:27:58;1.60;;;1.33;;
9374;SDS011;4727;51.202;6.344;2023-08-24T16:30:24;1.23;;;0.95;;
9374;SDS011;4727;51.202;6.344;2023-08-24T16:32:51;1.08;;;1.08;;